地図

経路データ

SID SEASON NUMBER BASIN SUBBASIN NAME ISO_TIME NATURE LAT LON WMO_WIND WMO_PRES WMO_AGENCY TRACK_TYPE DIST2LAND LANDFALL IFLAG USA_AGENCY USA_ATCF_ID USA_LAT USA_LON USA_RECORD USA_STATUS USA_WIND USA_PRES USA_SSHS USA_R34_NE USA_R34_SE USA_R34_SW USA_R34_NW USA_R50_NE USA_R50_SE USA_R50_SW USA_R50_NW USA_R64_NE USA_R64_SE USA_R64_SW USA_R64_NW USA_POCI USA_ROCI USA_RMW USA_EYE TOKYO_LAT TOKYO_LON TOKYO_GRADE TOKYO_WIND TOKYO_PRES TOKYO_R50_DIR TOKYO_R50_LONG TOKYO_R50_SHORT TOKYO_R30_DIR TOKYO_R30_LONG TOKYO_R30_SHORT TOKYO_LAND CMA_LAT CMA_LON CMA_CAT CMA_WIND CMA_PRES HKO_LAT HKO_LON HKO_CAT HKO_WIND HKO_PRES NEWDELHI_LAT NEWDELHI_LON NEWDELHI_GRADE NEWDELHI_WIND NEWDELHI_PRES NEWDELHI_CI NEWDELHI_DP NEWDELHI_POCI REUNION_LAT REUNION_LON REUNION_TYPE REUNION_WIND REUNION_PRES REUNION_TNUM REUNION_CI REUNION_RMW REUNION_R34_NE REUNION_R34_SE REUNION_R34_SW REUNION_R34_NW REUNION_R50_NE REUNION_R50_SE REUNION_R50_SW REUNION_R50_NW REUNION_R64_NE REUNION_R64_SE REUNION_R64_SW REUNION_R64_NW BOM_LAT BOM_LON BOM_TYPE BOM_WIND BOM_PRES BOM_TNUM BOM_CI BOM_RMW BOM_R34_NE BOM_R34_SE BOM_R34_SW BOM_R34_NW BOM_R50_NE BOM_R50_SE BOM_R50_SW BOM_R50_NW BOM_R64_NE BOM_R64_SE BOM_R64_SW BOM_R64_NW BOM_ROCI BOM_POCI BOM_EYE BOM_POS_METHOD BOM_PRES_METHOD NADI_LAT NADI_LON NADI_CAT NADI_WIND NADI_PRES WELLINGTON_LAT WELLINGTON_LON WELLINGTON_WIND WELLINGTON_PRES DS824_LAT DS824_LON DS824_STAGE DS824_WIND DS824_PRES TD9636_LAT TD9636_LON TD9636_STAGE TD9636_WIND TD9636_PRES TD9635_LAT TD9635_LON TD9635_WIND TD9635_PRES TD9635_ROCI NEUMANN_LAT NEUMANN_LON NEUMANN_CLASS NEUMANN_WIND NEUMANN_PRES MLC_LAT MLC_LON MLC_CLASS MLC_WIND MLC_PRES USA_GUST BOM_GUST BOM_GUST_PER REUNION_GUST REUNION_GUST_PER USA_SEAHGT USA_SEARAD_NE USA_SEARAD_SE USA_SEARAD_SW USA_SEARAD_NW STORM_SPEED STORM_DIR
1985221N18111 1985 64 WP MM NOT_NAMED 1985-08-08 12:00:00 TS 17.5000 110.500 main 113 107 __O___________ -1 17.5000 110.500 0 17 998 2 237
1985221N18111 1985 64 WP MM NOT_NAMED 1985-08-08 15:00:00 TS 17.4574 110.433 main 107 107 __P___________ -1 17.4574 110.433 0 18 998 0 0
1985221N18111 1985 64 WP MM NOT_NAMED 1985-08-08 18:00:00 TS 17.5000 110.500 main 113 107 __O___________ -1 17.5000 110.500 0 19 999 4 56
1985221N18111 1985 64 WP MM NOT_NAMED 1985-08-08 21:00:00 TS 17.6777 110.777 main 115 109 __P___________ -1 17.6777 110.777 0 19 999 7 55
1985221N18111 1985 64 WP MM NOT_NAMED 1985-08-09 00:00:00 TS 17.9000 111.100 main 116 115 __O___________ -1 17.9000 111.100 0 19 999 6 51
1985221N18111 1985 64 WP MM NOT_NAMED 1985-08-09 03:00:00 TS 18.0499 111.265 main 123 115 __P___________ -1 18.0499 111.265 0 19 999 4 43
1985221N18111 1985 64 WP MM NOT_NAMED 1985-08-09 06:00:00 TS 18.2000 111.400 main 116 116 __O___________ -1 18.2000 111.400 0 19 999 4 44
1985221N18111 1985 64 WP MM NOT_NAMED 1985-08-09 09:00:00 TS 18.3700 111.593 main 124 124 __P___________ -1 18.3700 111.593 0 19 999 6 43
1985221N18111 1985 64 WP MM NOT_NAMED 1985-08-09 12:00:00 TS 18.6000 111.800 main 134 130 __O___________ -1 18.6000 111.800 0 19 999 7 34
1985221N18111 1985 64 WP MM NOT_NAMED 1985-08-09 15:00:00 TS 18.9425 112.000 main 130 123 __P___________ -1 18.9425 112.000 0 19 999 8 28
1985221N18111 1985 64 WP MM NOT_NAMED 1985-08-09 18:00:00 TS 19.3000 112.200 main 130 127 __O___________ -1 19.3000 112.200 0 19 999 7 31
1985221N18111 1985 64 WP MM NOT_NAMED 1985-08-09 21:00:00 TS 19.5800 112.408 main 146 146 __P___________ -1 19.5800 112.408 0 21 998 6 37
1985221N18111 1985 64 WP MM NOT_NAMED 1985-08-10 00:00:00 TS 19.8000 112.600 main 168 168 __O___________ -1 19.8000 112.600 1 23 998 5 42
1985221N18111 1985 64 WP MM NOT_NAMED 1985-08-10 03:00:00 TS 19.9650 112.773 main 193 189 __P___________ -1 19.9650 112.773 1 23 998 4 43
1985221N18111 1985 64 WP MM NOT_NAMED 1985-08-10 06:00:00 TS 20.1000 112.900 main 189 178 __O___________ -1 20.1000 112.900 1 23 998 4 37
1985221N18111 1985 64 WP MM NOT_NAMED 1985-08-10 09:00:00 TS 20.2499 113.002 main 182 161 __P___________ -1 20.2499 113.002 1 26 997 3 17
1985221N18111 1985 64 WP MM NOT_NAMED 1985-08-10 12:00:00 TS 20.4000 113.000 main 161 133 __O___________ -1 20.4000 113.000 1 29 997 4 335
1985221N18111 1985 64 WP MM NOT_NAMED 1985-08-10 15:00:00 TS 20.6026 112.830 main 133 116 __P___________ -1 20.6026 112.830 1 29 997 5 309
1985221N18111 1985 64 WP MM NOT_NAMED 1985-08-10 18:00:00 TS 20.7000 112.600 main 116 113 __O___________ -1 20.7000 112.600 1 29 997 4 264
1985221N18111 1985 64 WP MM NOT_NAMED 1985-08-10 21:00:00 TS 20.5599 112.375 main 123 123 __P___________ -1 20.5599 112.375 1 29 997 5 215
1985221N18111 1985 64 WP MM NOT_NAMED 1985-08-11 00:00:00 TS 20.3000 112.300 main 152 150 __O___________ -1 20.3000 112.300 1 29 997 6 164
1985221N18111 1985 64 WP MM NOT_NAMED 1985-08-11 03:00:00 TS 20.0127 112.548 main 163 163 __P___________ -1 20.0127 112.548 1 29 997 8 132
1985221N18111 1985 64 WP MM NOT_NAMED 1985-08-11 06:00:00 TS 19.8000 112.900 main 200 200 __O___________ -1 19.8000 112.900 1 29 997 6 112
1985221N18111 1985 64 WP MM NOT_NAMED 1985-08-11 09:00:00 TS 19.7974 113.122 main 220 220 __P___________ -1 19.7974 113.122 1 26 997 4 75
1985221N18111 1985 64 WP MM NOT_NAMED 1985-08-11 12:00:00 TS 19.9000 113.300 main 224 216 __O___________ -1 19.9000 113.300 1 23 997 4 58
1985221N18111 1985 64 WP MM NOT_NAMED 1985-08-11 15:00:00 TS 20.0075 113.480 main 218 207 __P___________ -1 20.0075 113.480 1 23 997 3 55
1985221N18111 1985 64 WP MM NOT_NAMED 1985-08-11 18:00:00 TS 20.1000 113.600 main 210 210 __O___________ -1 20.1000 113.600 1 23 997 1 58
1985221N18111 1985 64 WP MM NOT_NAMED 1985-08-11 21:00:00 TS 20.0850 113.615 main 210 210 __P___________ -1 20.0850 113.615 1 23 996 0 0
1985221N18111 1985 64 WP MM NOT_NAMED 1985-08-12 00:00:00 TS 20.1000 113.600 main 210 193 __O___________ -1 20.1000 113.600 1 23 995 2 13
1985221N18111 1985 64 WP MM NOT_NAMED 1985-08-12 03:00:00 TS 20.2775 113.657 main 193 172 __P___________ -1 20.2775 113.657 1 23 995 4 13
1985221N18111 1985 64 WP MM NOT_NAMED 1985-08-12 06:00:00 TS 20.5000 113.700 main 172 162 __O___________ -1 20.5000 113.700 1 23 995 4 0
1985221N18111 1985 64 WP MM NOT_NAMED 1985-08-12 09:00:00 TS 20.6575 113.673 main 152 137 __P___________ -1 20.6575 113.673 1 23 995 3 343
1985221N18111 1985 64 WP MM NOT_NAMED 1985-08-12 12:00:00 TS 20.8000 113.600 main 137 113 __O___________ -1 20.8000 113.600 1 23 996 4 332
1985221N18111 1985 64 WP MM NOT_NAMED 1985-08-12 15:00:00 TS 20.9725 113.493 main 113 98 __P___________ -1 20.9725 113.493 1 23 996 4 329
1985221N18111 1985 64 WP MM NOT_NAMED 1985-08-12 18:00:00 TS 21.1000 113.400 main 98 98 __O___________ -1 21.1000 113.400 1 23 996 2 331
1985221N18111 1985 64 WP MM NOT_NAMED 1985-08-12 21:00:00 TS 21.1150 113.407 main 98 98 __P___________ -1 21.1150 113.407 1 26 996 0 0
1985221N18111 1985 64 WP MM NOT_NAMED 1985-08-13 00:00:00 TS 21.1000 113.400 main 98 94 __O___________ -1 21.1000 113.400 1 29 996 1 279
1985221N18111 1985 64 WP MM NOT_NAMED 1985-08-13 03:00:00 TS 21.1350 113.272 main 94 78 __P___________ -1 21.1350 113.272 1 29 995 3 290
1985221N18111 1985 64 WP MM NOT_NAMED 1985-08-13 06:00:00 TS 21.2000 113.100 main 78 63 __O___________ -1 21.2000 113.100 1 29 994 4 298
1985221N18111 1985 64 WP MM NOT_NAMED 1985-08-13 09:00:00 TS 21.3075 112.928 main 63 49 __P___________ -1 21.3075 112.928 1 29 995 3 305
1985221N18111 1985 64 WP MM NOT_NAMED 1985-08-13 12:00:00 TS 21.4000 112.800 main 49 49 __O___________ -1 21.4000 112.800 1 29 996 1 302
1985221N18111 1985 64 WP MM NOT_NAMED 1985-08-13 15:00:00 TS 21.3850 112.792 main 49 49 __P___________ -1 21.3850 112.792 1 29 995 0 0
1985221N18111 1985 64 WP MM NOT_NAMED 1985-08-13 18:00:00 TS 21.4000 112.800 main 49 30 __O___________ -1 21.4000 112.800 1 29 995 2 347
1985221N18111 1985 64 WP MM NOT_NAMED 1985-08-13 21:00:00 TS 21.5774 112.745 main 24 0 __P___________ -1 21.5774 112.745 1 24 995 4 335
1985221N18111 1985 64 WP MM NOT_NAMED 1985-08-14 00:00:00 TS 21.8000 112.600 main 0 0 __O___________ -1 21.8000 112.600 0 19 995 6 319
1985221N18111 1985 64 WP MM NOT_NAMED 1985-08-14 03:00:00 TS 22.0025 112.345 main 0 0 __P___________ -1 22.0025 112.345 0 19 995 6 298
1985221N18111 1985 64 WP MM NOT_NAMED 1985-08-14 06:00:00 TS 22.1000 112.000 main 0 0 __O___________ -1 22.1000 112.000 0 19 995 7 266
1985221N18111 1985 64 WP MM NOT_NAMED 1985-08-14 09:00:00 TS 21.9574 111.629 main 0 0 __P___________ -1 21.9574 111.629 0 19 995 8 248
1985221N18111 1985 64 WP MM NOT_NAMED 1985-08-14 12:00:00 TS 21.8000 111.200 main 0 0 __O___________ -1 21.8000 111.200 0 19 995 9 264
1985221N18111 1985 64 WP MM NOT_NAMED 1985-08-14 15:00:00 TS 21.8625 110.715 main 0 0 __P___________ -1 21.8625 110.715 0 18 995 9 282
1985221N18111 1985 64 WP MM NOT_NAMED 1985-08-14 18:00:00 TS 22.0000 110.200 main 0 0 __O___________ -1 22.0000 110.200 0 17 996 10 285
1985221N18111 1985 64 WP MM NOT_NAMED 1985-08-14 21:00:00 TS 22.1072 109.715 main 0 0 __P___________ -1 22.1072 109.715 0 17 996 9 282
1985221N18111 1985 64 WP MM NOT_NAMED 1985-08-15 00:00:00 TS 22.2000 109.200 main 0 0 __O___________ -1 22.2000 109.200 0 17 996 10 280
1985221N18111 1985 64 WP MM NOT_NAMED 1985-08-15 03:00:00 TS 22.2876 108.600 main 0 0 __P___________ -1 22.2876 108.600 0 17 996 11 275
1985221N18111 1985 64 WP MM NOT_NAMED 1985-08-15 06:00:00 TS 22.3000 108.000 main 0 0 __O___________ -1 22.3000 108.000 0 17 996 10 265
1985221N18111 1985 64 WP MM NOT_NAMED 1985-08-15 09:00:00 TS 22.1947 107.485 main 0 0 __P___________ -1 22.1947 107.485 0 17 996 10 252
1985221N18111 1985 64 WP MM NOT_NAMED 1985-08-15 12:00:00 TS 22.0000 107.000 main 0 0 __O___________ -1 22.0000 107.000 0 17 996 10 244
1985221N18111 1985 64 WP MM NOT_NAMED 1985-08-15 15:00:00 TS 21.7604 106.505 main 0 0 __P___________ -1 21.7604 106.505 0 17 997 11 242
1985221N18111 1985 64 WP MM NOT_NAMED 1985-08-15 18:00:00 TS 21.5000 106.000 main 0 __O___________ -1 21.5000 106.000 0 17 998 11 241

デジタル台風データ・検索

IBTrACS Databaseについて

本データベースは、米国NOAAが公開する1842年以降の世界の熱帯低気圧のベストトラックデータアーカイブInternational Best Track Archive for Climate Stewardship (IBTrACS)を、ウェブで閲覧しやすい形式に変換したものです。

最終更新日:2021-10-21